sensor_id;sensor_type;location;lat;lon;timestamp;P1;durP1;ratioP1;P2;durP2;ratioP2
4353;SDS011;11018;51.258;6.806;2023-06-01T00:01:57;8.73;;;3.70;;
4353;SDS011;11018;51.258;6.806;2023-06-01T00:04:23;10.40;;;4.78;;
4353;SDS011;11018;51.258;6.806;2023-06-01T00:06:48;9.80;;;5.00;;
4353;SDS011;11018;51.258;6.806;2023-06-01T00:09:14;8.73;;;4.40;;
4353;SDS011;11018;51.258;6.806;2023-06-01T00:11:40;10.10;;;4.80;;
4353;SDS011;11018;51.258;6.806;2023-06-01T00:14:05;8.70;;;4.68;;
4353;SDS011;11018;51.258;6.806;2023-06-01T00:16:31;9.77;;;4.90;;
4353;SDS011;11018;51.258;6.806;2023-06-01T00:18:57;14.88;;;4.75;;
4353;SDS011;11018;51.258;6.806;2023-06-01T00:21:26;11.63;;;4.80;;
4353;SDS011;11018;51.258;6.806;2023-06-01T00:23:52;9.57;;;4.95;;
4353;SDS011;11018;51.258;6.806;2023-06-01T00:26:17;11.40;;;4.35;;
4353;SDS011;11018;51.258;6.806;2023-06-01T00:28:43;10.35;;;4.82;;
4353;SDS011;11018;51.258;6.806;2023-06-01T00:31:08;12.40;;;4.67;;
4353;SDS011;11018;51.258;6.806;2023-06-01T00:33:34;10.90;;;4.70;;
4353;SDS011;11018;51.258;6.806;2023-06-01T00:35:59;9.98;;;5.35;;
4353;SDS011;11018;51.258;6.806;2023-06-01T00:38:25;13.40;;;5.45;;
4353;SDS011;11018;51.258;6.806;2023-06-01T00:40:51;12.70;;;5.30;;
4353;SDS011;11018;51.258;6.806;2023-06-01T00:43:17;11.40;;;5.50;;
4353;SDS011;11018;51.258;6.806;2023-06-01T00:45:43;14.25;;;5.22;;
4353;SDS011;11018;51.258;6.806;2023-06-01T00:48:09;14.52;;;6.30;;
4353;SDS011;11018;51.258;6.806;2023-06-01T00:50:39;11.53;;;5.77;;
4353;SDS011;11018;51.258;6.806;2023-06-01T00:53:05;16.90;;;6.30;;
4353;SDS011;11018;51.258;6.806;2023-06-01T00:55:34;15.65;;;5.90;;
4353;SDS011;11018;51.258;6.806;2023-06-01T00:58:00;13.00;;;6.25;;
4353;SDS011;11018;51.258;6.806;2023-06-01T01:00:26;12.10;;;5.88;;
4353;SDS011;11018;51.258;6.806;2023-06-01T01:02:53;10.65;;;5.68;;
4353;SDS011;11018;51.258;6.806;2023-06-01T01:05:22;10.67;;;5.77;;
4353;SDS011;11018;51.258;6.806;2023-06-01T01:08:52;14.82;;;6.78;;
4353;SDS011;11018;51.258;6.806;2023-06-01T01:10:55;12.68;;;6.63;;
4353;SDS011;11018;51.258;6.806;2023-06-01T01:16:18;15.60;;;7.27;;
4353;SDS011;11018;51.258;6.806;2023-06-01T01:18:54;15.00;;;7.20;;
4353;SDS011;11018;51.258;6.806;2023-06-01T01:21:26;14.45;;;7.47;;
4353;SDS011;11018;51.258;6.806;2023-06-01T01:24:10;15.60;;;7.67;;
4353;SDS011;11018;51.258;6.806;2023-06-01T01:29:34;16.27;;;7.60;;
4353;SDS011;11018;51.258;6.806;2023-06-01T01:32:02;16.40;;;8.10;;
4353;SDS011;11018;51.258;6.806;2023-06-01T01:34:29;13.15;;;7.57;;
4353;SDS011;11018;51.258;6.806;2023-06-01T01:36:55;17.87;;;8.17;;
4353;SDS011;11018;51.258;6.806;2023-06-01T01:39:21;16.33;;;8.03;;
4353;SDS011;11018;51.258;6.806;2023-06-01T01:41:47;16.30;;;8.67;;
4353;SDS011;11018;51.258;6.806;2023-06-01T01:44:12;22.65;;;8.50;;
4353;SDS011;11018;51.258;6.806;2023-06-01T01:49:30;14.45;;;8.45;;
4353;SDS011;11018;51.258;6.806;2023-06-01T01:52:05;19.02;;;8.52;;
4353;SDS011;11018;51.258;6.806;2023-06-01T01:54:41;18.43;;;9.40;;
4353;SDS011;11018;51.258;6.806;2023-06-01T01:57:08;20.02;;;9.77;;
4353;SDS011;11018;51.258;6.806;2023-06-01T01:59:35;18.90;;;9.60;;
4353;SDS011;11018;51.258;6.806;2023-06-01T02:02:01;20.00;;;10.52;;
4353;SDS011;11018;51.258;6.806;2023-06-01T02:04:27;19.33;;;9.82;;
4353;SDS011;11018;51.258;6.806;2023-06-01T02:06:53;18.80;;;10.85;;
4353;SDS011;11018;51.258;6.806;2023-06-01T02:09:19;18.13;;;10.10;;
4353;SDS011;11018;51.258;6.806;2023-06-01T02:11:45;20.80;;;11.30;;
4353;SDS011;11018;51.258;6.806;2023-06-01T02:14:10;21.00;;;11.03;;
4353;SDS011;11018;51.258;6.806;2023-06-01T02:16:36;20.92;;;10.18;;
4353;SDS011;11018;51.258;6.806;2023-06-01T02:19:02;21.97;;;11.00;;
4353;SDS011;11018;51.258;6.806;2023-06-01T02:21:28;23.38;;;11.20;;
4353;SDS011;11018;51.258;6.806;2023-06-01T02:23:54;18.67;;;10.73;;
4353;SDS011;11018;51.258;6.806;2023-06-01T02:26:20;20.48;;;11.30;;
4353;SDS011;11018;51.258;6.806;2023-06-01T02:28:46;25.00;;;12.15;;
4353;SDS011;11018;51.258;6.806;2023-06-01T02:31:12;27.02;;;12.30;;
4353;SDS011;11018;51.258;6.806;2023-06-01T02:33:39;23.98;;;11.70;;
4353;SDS011;11018;51.258;6.806;2023-06-01T02:36:05;25.40;;;13.25;;
4353;SDS011;11018;51.258;6.806;2023-06-01T02:38:31;26.83;;;13.60;;
4353;SDS011;11018;51.258;6.806;2023-06-01T02:40:56;27.58;;;13.10;;
4353;SDS011;11018;51.258;6.806;2023-06-01T02:43:22;27.45;;;13.10;;
4353;SDS011;11018;51.258;6.806;2023-06-01T02:45:47;27.63;;;14.20;;
4353;SDS011;11018;51.258;6.806;2023-06-01T02:48:13;23.47;;;14.30;;
4353;SDS011;11018;51.258;6.806;2023-06-01T02:50:39;28.20;;;14.75;;
4353;SDS011;11018;51.258;6.806;2023-06-01T02:53:05;29.00;;;14.50;;
4353;SDS011;11018;51.258;6.806;2023-06-01T02:55:31;29.90;;;14.20;;
4353;SDS011;11018;51.258;6.806;2023-06-01T02:57:56;27.10;;;14.80;;
4353;SDS011;11018;51.258;6.806;2023-06-01T03:00:22;28.42;;;15.02;;
4353;SDS011;11018;51.258;6.806;2023-06-01T03:02:47;23.80;;;12.90;;
4353;SDS011;11018;51.258;6.806;2023-06-01T03:05:13;30.05;;;14.82;;
4353;SDS011;11018;51.258;6.806;2023-06-01T03:07:42;25.48;;;14.27;;
4353;SDS011;11018;51.258;6.806;2023-06-01T03:10:09;29.45;;;15.48;;
4353;SDS011;11018;51.258;6.806;2023-06-01T03:12:34;28.70;;;15.77;;
4353;SDS011;11018;51.258;6.806;2023-06-01T03:15:00;31.42;;;16.45;;
4353;SDS011;11018;51.258;6.806;2023-06-01T03:17:26;28.63;;;15.82;;
4353;SDS011;11018;51.258;6.806;2023-06-01T03:19:51;37.17;;;16.70;;
4353;SDS011;11018;51.258;6.806;2023-06-01T03:22:17;26.57;;;15.33;;
4353;SDS011;11018;51.258;6.806;2023-06-01T03:24:42;30.07;;;17.00;;
4353;SDS011;11018;51.258;6.806;2023-06-01T03:27:09;31.77;;;16.45;;
4353;SDS011;11018;51.258;6.806;2023-06-01T03:29:35;32.60;;;17.33;;
4353;SDS011;11018;51.258;6.806;2023-06-01T03:32:01;29.35;;;16.38;;
4353;SDS011;11018;51.258;6.806;2023-06-01T03:34:27;30.85;;;16.67;;
4353;SDS011;11018;51.258;6.806;2023-06-01T03:36:53;34.23;;;16.90;;
4353;SDS011;11018;51.258;6.806;2023-06-01T03:39:19;35.10;;;16.63;;
4353;SDS011;11018;51.258;6.806;2023-06-01T03:41:44;35.07;;;16.30;;
4353;SDS011;11018;51.258;6.806;2023-06-01T03:44:10;29.43;;;15.90;;
4353;SDS011;11018;51.258;6.806;2023-06-01T03:46:37;34.20;;;17.20;;
4353;SDS011;11018;51.258;6.806;2023-06-01T03:49:03;31.20;;;17.27;;
4353;SDS011;11018;51.258;6.806;2023-06-01T03:51:29;30.35;;;17.45;;
4353;SDS011;11018;51.258;6.806;2023-06-01T03:53:55;31.47;;;18.50;;
4353;SDS011;11018;51.258;6.806;2023-06-01T03:56:20;30.70;;;18.00;;
4353;SDS011;11018;51.258;6.806;2023-06-01T03:58:47;31.67;;;17.42;;
4353;SDS011;11018;51.258;6.806;2023-06-01T04:01:13;32.70;;;18.48;;
4353;SDS011;11018;51.258;6.806;2023-06-01T04:03:41;30.73;;;18.60;;
4353;SDS011;11018;51.258;6.806;2023-06-01T04:06:08;32.10;;;19.10;;
4353;SDS011;11018;51.258;6.806;2023-06-01T04:08:37;34.00;;;19.30;;
4353;SDS011;11018;51.258;6.806;2023-06-01T04:11:12;36.93;;;21.17;;
4353;SDS011;11018;51.258;6.806;2023-06-01T04:13:38;42.33;;;21.37;;
4353;SDS011;11018;51.258;6.806;2023-06-01T04:16:04;36.53;;;21.27;;
4353;SDS011;11018;51.258;6.806;2023-06-01T04:18:30;39.78;;;21.70;;
4353;SDS011;11018;51.258;6.806;2023-06-01T04:20:55;38.90;;;21.20;;
4353;SDS011;11018;51.258;6.806;2023-06-01T04:23:21;43.28;;;24.25;;
4353;SDS011;11018;51.258;6.806;2023-06-01T04:25:47;45.67;;;24.30;;
4353;SDS011;11018;51.258;6.806;2023-06-01T04:28:16;49.45;;;25.63;;
4353;SDS011;11018;51.258;6.806;2023-06-01T04:30:42;51.08;;;25.60;;
4353;SDS011;11018;51.258;6.806;2023-06-01T04:33:12;51.97;;;25.33;;
4353;SDS011;11018;51.258;6.806;2023-06-01T04:35:38;46.67;;;26.17;;
4353;SDS011;11018;51.258;6.806;2023-06-01T04:38:04;42.20;;;25.07;;
4353;SDS011;11018;51.258;6.806;2023-06-01T04:40:30;45.60;;;23.77;;
4353;SDS011;11018;51.258;6.806;2023-06-01T04:42:56;45.67;;;24.55;;
4353;SDS011;11018;51.258;6.806;2023-06-01T04:45:22;50.22;;;26.27;;
4353;SDS011;11018;51.258;6.806;2023-06-01T04:47:50;46.85;;;25.13;;
4353;SDS011;11018;51.258;6.806;2023-06-01T04:50:16;40.45;;;24.35;;
4353;SDS011;11018;51.258;6.806;2023-06-01T04:52:42;52.23;;;26.30;;
4353;SDS011;11018;51.258;6.806;2023-06-01T04:55:09;43.78;;;25.92;;
4353;SDS011;11018;51.258;6.806;2023-06-01T04:57:38;40.47;;;25.58;;
4353;SDS011;11018;51.258;6.806;2023-06-01T05:00:08;45.67;;;28.33;;
4353;SDS011;11018;51.258;6.806;2023-06-01T05:02:38;52.33;;;27.33;;
4353;SDS011;11018;51.258;6.806;2023-06-01T05:05:05;47.08;;;27.88;;
4353;SDS011;11018;51.258;6.806;2023-06-01T05:07:32;51.80;;;27.33;;
4353;SDS011;11018;51.258;6.806;2023-06-01T05:09:58;46.90;;;28.17;;
4353;SDS011;11018;51.258;6.806;2023-06-01T05:12:29;52.22;;;29.65;;
4353;SDS011;11018;51.258;6.806;2023-06-01T05:14:54;47.58;;;29.55;;
4353;SDS011;11018;51.258;6.806;2023-06-01T05:17:20;52.80;;;29.40;;
4353;SDS011;11018;51.258;6.806;2023-06-01T05:19:45;48.33;;;28.60;;
4353;SDS011;11018;51.258;6.806;2023-06-01T05:22:11;46.63;;;27.83;;
4353;SDS011;11018;51.258;6.806;2023-06-01T05:24:37;50.80;;;29.30;;
4353;SDS011;11018;51.258;6.806;2023-06-01T05:27:02;53.88;;;30.45;;
4353;SDS011;11018;51.258;6.806;2023-06-01T05:29:28;47.67;;;27.77;;
4353;SDS011;11018;51.258;6.806;2023-06-01T05:31:54;50.42;;;28.60;;
4353;SDS011;11018;51.258;6.806;2023-06-01T05:34:20;51.20;;;29.50;;
4353;SDS011;11018;51.258;6.806;2023-06-01T05:36:46;50.80;;;29.08;;
4353;SDS011;11018;51.258;6.806;2023-06-01T05:39:11;50.78;;;29.33;;
4353;SDS011;11018;51.258;6.806;2023-06-01T05:41:37;51.13;;;28.60;;
4353;SDS011;11018;51.258;6.806;2023-06-01T05:44:02;43.47;;;27.80;;
4353;SDS011;11018;51.258;6.806;2023-06-01T05:46:28;47.28;;;28.45;;
4353;SDS011;11018;51.258;6.806;2023-06-01T05:48:54;45.97;;;27.80;;
4353;SDS011;11018;51.258;6.806;2023-06-01T05:51:20;44.90;;;26.55;;
4353;SDS011;11018;51.258;6.806;2023-06-01T05:53:46;47.08;;;27.02;;
4353;SDS011;11018;51.258;6.806;2023-06-01T05:56:11;46.95;;;28.27;;
4353;SDS011;11018;51.258;6.806;2023-06-01T05:58:37;47.25;;;29.33;;
4353;SDS011;11018;51.258;6.806;2023-06-01T06:01:03;49.55;;;29.50;;
4353;SDS011;11018;51.258;6.806;2023-06-01T06:03:29;53.85;;;29.00;;
4353;SDS011;11018;51.258;6.806;2023-06-01T06:05:55;48.60;;;31.05;;
4353;SDS011;11018;51.258;6.806;2023-06-01T06:08:21;52.10;;;29.87;;
4353;SDS011;11018;51.258;6.806;2023-06-01T06:10:46;52.40;;;28.17;;
4353;SDS011;11018;51.258;6.806;2023-06-01T06:13:13;44.73;;;26.90;;
4353;SDS011;11018;51.258;6.806;2023-06-01T06:15:39;46.67;;;26.90;;
4353;SDS011;11018;51.258;6.806;2023-06-01T06:18:04;48.30;;;29.60;;
4353;SDS011;11018;51.258;6.806;2023-06-01T06:20:30;52.00;;;28.38;;
4353;SDS011;11018;51.258;6.806;2023-06-01T06:22:56;53.80;;;28.45;;
4353;SDS011;11018;51.258;6.806;2023-06-01T06:25:22;46.63;;;26.23;;
4353;SDS011;11018;51.258;6.806;2023-06-01T06:27:48;50.20;;;27.17;;
4353;SDS011;11018;51.258;6.806;2023-06-01T06:30:13;48.00;;;28.80;;
4353;SDS011;11018;51.258;6.806;2023-06-01T06:32:41;48.85;;;27.73;;
4353;SDS011;11018;51.258;6.806;2023-06-01T06:35:08;56.47;;;32.20;;
4353;SDS011;11018;51.258;6.806;2023-06-01T06:37:37;57.33;;;32.58;;
4353;SDS011;11018;51.258;6.806;2023-06-01T06:40:07;56.05;;;32.45;;
4353;SDS011;11018;51.258;6.806;2023-06-01T06:42:32;60.00;;;32.13;;
4353;SDS011;11018;51.258;6.806;2023-06-01T06:44:58;52.00;;;32.87;;
4353;SDS011;11018;51.258;6.806;2023-06-01T06:47:23;56.20;;;32.33;;
4353;SDS011;11018;51.258;6.806;2023-06-01T06:49:49;48.42;;;30.80;;
4353;SDS011;11018;51.258;6.806;2023-06-01T06:52:16;44.17;;;28.92;;
4353;SDS011;11018;51.258;6.806;2023-06-01T06:54:41;51.05;;;30.27;;
4353;SDS011;11018;51.258;6.806;2023-06-01T06:57:07;49.03;;;32.10;;
4353;SDS011;11018;51.258;6.806;2023-06-01T06:59:33;50.72;;;32.50;;
4353;SDS011;11018;51.258;6.806;2023-06-01T07:01:59;46.43;;;30.77;;
4353;SDS011;11018;51.258;6.806;2023-06-01T07:04:25;55.67;;;30.27;;
4353;SDS011;11018;51.258;6.806;2023-06-01T07:06:52;51.28;;;31.00;;
4353;SDS011;11018;51.258;6.806;2023-06-01T07:09:18;54.35;;;31.67;;
4353;SDS011;11018;51.258;6.806;2023-06-01T07:11:43;48.63;;;31.77;;
4353;SDS011;11018;51.258;6.806;2023-06-01T07:14:10;52.37;;;32.30;;
4353;SDS011;11018;51.258;6.806;2023-06-01T07:16:36;52.92;;;33.10;;
4353;SDS011;11018;51.258;6.806;2023-06-01T07:19:01;57.33;;;34.40;;
4353;SDS011;11018;51.258;6.806;2023-06-01T07:21:27;50.65;;;31.77;;
4353;SDS011;11018;51.258;6.806;2023-06-01T07:23:53;47.95;;;30.30;;
4353;SDS011;11018;51.258;6.806;2023-06-01T07:26:19;48.35;;;29.58;;
4353;SDS011;11018;51.258;6.806;2023-06-01T07:28:45;44.72;;;30.23;;
4353;SDS011;11018;51.258;6.806;2023-06-01T07:31:11;49.17;;;28.90;;
4353;SDS011;11018;51.258;6.806;2023-06-01T07:33:36;51.20;;;29.63;;
4353;SDS011;11018;51.258;6.806;2023-06-01T07:36:02;50.70;;;31.33;;
4353;SDS011;11018;51.258;6.806;2023-06-01T07:38:30;49.25;;;32.00;;
4353;SDS011;11018;51.258;6.806;2023-06-01T07:40:56;48.50;;;30.38;;
4353;SDS011;11018;51.258;6.806;2023-06-01T07:43:21;47.38;;;28.73;;
4353;SDS011;11018;51.258;6.806;2023-06-01T07:45:47;44.90;;;27.77;;
4353;SDS011;11018;51.258;6.806;2023-06-01T07:48:12;41.63;;;27.87;;
4353;SDS011;11018;51.258;6.806;2023-06-01T07:50:38;46.15;;;29.08;;
4353;SDS011;11018;51.258;6.806;2023-06-01T07:53:04;51.55;;;30.70;;
4353;SDS011;11018;51.258;6.806;2023-06-01T07:55:29;54.05;;;35.10;;
4353;SDS011;11018;51.258;6.806;2023-06-01T07:57:55;48.57;;;30.60;;
4353;SDS011;11018;51.258;6.806;2023-06-01T08:00:20;43.90;;;27.77;;
4353;SDS011;11018;51.258;6.806;2023-06-01T08:02:47;50.47;;;31.70;;
4353;SDS011;11018;51.258;6.806;2023-06-01T08:05:12;51.38;;;29.92;;
4353;SDS011;11018;51.258;6.806;2023-06-01T08:07:42;54.00;;;32.92;;
4353;SDS011;11018;51.258;6.806;2023-06-01T08:10:09;52.40;;;32.37;;
4353;SDS011;11018;51.258;6.806;2023-06-01T08:12:35;46.08;;;29.48;;
4353;SDS011;11018;51.258;6.806;2023-06-01T08:15:01;45.30;;;27.38;;
4353;SDS011;11018;51.258;6.806;2023-06-01T08:17:28;37.75;;;25.67;;
4353;SDS011;11018;51.258;6.806;2023-06-01T08:19:54;50.08;;;31.55;;
4353;SDS011;11018;51.258;6.806;2023-06-01T08:22:21;54.10;;;32.50;;
4353;SDS011;11018;51.258;6.806;2023-06-01T08:24:49;50.15;;;31.90;;
4353;SDS011;11018;51.258;6.806;2023-06-01T08:27:21;48.60;;;29.67;;
4353;SDS011;11018;51.258;6.806;2023-06-01T08:29:49;49.10;;;31.10;;
4353;SDS011;11018;51.258;6.806;2023-06-01T08:32:15;50.72;;;33.20;;
4353;SDS011;11018;51.258;6.806;2023-06-01T08:34:44;51.42;;;33.20;;
4353;SDS011;11018;51.258;6.806;2023-06-01T08:37:11;47.75;;;31.35;;
4353;SDS011;11018;51.258;6.806;2023-06-01T08:39:38;56.92;;;34.05;;
4353;SDS011;11018;51.258;6.806;2023-06-01T08:44:57;59.30;;;35.60;;
4353;SDS011;11018;51.258;6.806;2023-06-01T08:47:24;57.53;;;36.22;;
4353;SDS011;11018;51.258;6.806;2023-06-01T08:49:51;59.10;;;36.47;;
4353;SDS011;11018;51.258;6.806;2023-06-01T08:52:21;63.00;;;39.33;;
4353;SDS011;11018;51.258;6.806;2023-06-01T08:54:49;71.40;;;43.42;;
4353;SDS011;11018;51.258;6.806;2023-06-01T08:57:15;70.57;;;45.53;;
4353;SDS011;11018;51.258;6.806;2023-06-01T08:59:41;75.45;;;44.83;;
4353;SDS011;11018;51.258;6.806;2023-06-01T09:02:07;73.55;;;45.97;;
4353;SDS011;11018;51.258;6.806;2023-06-01T09:04:34;81.27;;;47.43;;
4353;SDS011;11018;51.258;6.806;2023-06-01T09:07:02;77.80;;;48.33;;
4353;SDS011;11018;51.258;6.806;2023-06-01T09:09:28;86.10;;;52.15;;
4353;SDS011;11018;51.258;6.806;2023-06-01T09:14:49;76.75;;;46.88;;
4353;SDS011;11018;51.258;6.806;2023-06-01T09:17:20;75.60;;;44.17;;
4353;SDS011;11018;51.258;6.806;2023-06-01T09:19:47;80.15;;;49.35;;
4353;SDS011;11018;51.258;6.806;2023-06-01T09:22:15;76.50;;;46.25;;
4353;SDS011;11018;51.258;6.806;2023-06-01T09:24:40;78.87;;;46.87;;
4353;SDS011;11018;51.258;6.806;2023-06-01T09:27:19;75.40;;;46.53;;
4353;SDS011;11018;51.258;6.806;2023-06-01T09:29:51;77.97;;;46.47;;
4353;SDS011;11018;51.258;6.806;2023-06-01T09:32:21;76.88;;;45.33;;
4353;SDS011;11018;51.258;6.806;2023-06-01T09:34:46;74.10;;;46.30;;
4353;SDS011;11018;51.258;6.806;2023-06-01T09:37:12;72.37;;;43.83;;
4353;SDS011;11018;51.258;6.806;2023-06-01T09:39:39;76.85;;;45.00;;
4353;SDS011;11018;51.258;6.806;2023-06-01T09:42:05;78.60;;;47.20;;
4353;SDS011;11018;51.258;6.806;2023-06-01T09:44:35;70.38;;;46.22;;
4353;SDS011;11018;51.258;6.806;2023-06-01T09:47:05;66.07;;;42.40;;
4353;SDS011;11018;51.258;6.806;2023-06-01T09:49:37;67.80;;;41.60;;
4353;SDS011;11018;51.258;6.806;2023-06-01T09:54:37;63.43;;;39.77;;
4353;SDS011;11018;51.258;6.806;2023-06-01T09:57:05;58.22;;;35.33;;
4353;SDS011;11018;51.258;6.806;2023-06-01T09:59:41;57.78;;;35.80;;
4353;SDS011;11018;51.258;6.806;2023-06-01T10:02:19;59.17;;;37.38;;
4353;SDS011;11018;51.258;6.806;2023-06-01T10:04:52;59.90;;;38.13;;
4353;SDS011;11018;51.258;6.806;2023-06-01T10:07:19;65.63;;;35.47;;
4353;SDS011;11018;51.258;6.806;2023-06-01T10:09:51;55.85;;;36.80;;
4353;SDS011;11018;51.258;6.806;2023-06-01T10:12:23;59.55;;;36.88;;
4353;SDS011;11018;51.258;6.806;2023-06-01T10:14:50;62.50;;;36.75;;
4353;SDS011;11018;51.258;6.806;2023-06-01T10:17:17;54.83;;;31.83;;
4353;SDS011;11018;51.258;6.806;2023-06-01T10:19:43;57.85;;;34.33;;
4353;SDS011;11018;51.258;6.806;2023-06-01T10:22:10;51.90;;;31.13;;
4353;SDS011;11018;51.258;6.806;2023-06-01T10:24:36;56.60;;;32.95;;
4353;SDS011;11018;51.258;6.806;2023-06-01T10:30:08;52.15;;;30.15;;
4353;SDS011;11018;51.258;6.806;2023-06-01T10:35:07;44.97;;;27.38;;
4353;SDS011;11018;51.258;6.806;2023-06-01T10:37:35;41.72;;;26.98;;
4353;SDS011;11018;51.258;6.806;2023-06-01T10:42:56;40.87;;;21.27;;
4353;SDS011;11018;51.258;6.806;2023-06-01T10:47:59;28.27;;;18.52;;
4353;SDS011;11018;51.258;6.806;2023-06-01T10:50:26;30.80;;;17.75;;
4353;SDS011;11018;51.258;6.806;2023-06-01T10:52:53;32.72;;;18.88;;
4353;SDS011;11018;51.258;6.806;2023-06-01T10:55:20;26.50;;;14.60;;
4353;SDS011;11018;51.258;6.806;2023-06-01T10:57:50;32.03;;;15.75;;
4353;SDS011;11018;51.258;6.806;2023-06-01T11:00:23;29.98;;;15.88;;
4353;SDS011;11018;51.258;6.806;2023-06-01T11:05:43;22.40;;;14.27;;
4353;SDS011;11018;51.258;6.806;2023-06-01T11:23:46;29.40;;;13.80;;
4353;SDS011;11018;51.258;6.806;2023-06-01T11:26:16;26.65;;;13.30;;
4353;SDS011;11018;51.258;6.806;2023-06-01T11:28:43;27.25;;;14.27;;
4353;SDS011;11018;51.258;6.806;2023-06-01T11:31:13;25.67;;;12.77;;
4353;SDS011;11018;51.258;6.806;2023-06-01T11:33:41;26.98;;;14.25;;
4353;SDS011;11018;51.258;6.806;2023-06-01T11:36:13;24.88;;;12.57;;
4353;SDS011;11018;51.258;6.806;2023-06-01T11:38:41;24.23;;;12.90;;
4353;SDS011;11018;51.258;6.806;2023-06-01T11:41:11;24.23;;;13.70;;
4353;SDS011;11018;51.258;6.806;2023-06-01T11:43:36;27.15;;;13.70;;
4353;SDS011;11018;51.258;6.806;2023-06-01T11:46:03;28.73;;;13.57;;
4353;SDS011;11018;51.258;6.806;2023-06-01T11:48:32;30.67;;;14.30;;
4353;SDS011;11018;51.258;6.806;2023-06-01T11:51:02;28.75;;;14.00;;
4353;SDS011;11018;51.258;6.806;2023-06-01T11:53:29;26.58;;;13.63;;
4353;SDS011;11018;51.258;6.806;2023-06-01T11:55:59;25.98;;;13.82;;
4353;SDS011;11018;51.258;6.806;2023-06-01T11:58:28;26.90;;;14.15;;
4353;SDS011;11018;51.258;6.806;2023-06-01T12:00:55;24.42;;;13.40;;
4353;SDS011;11018;51.258;6.806;2023-06-01T12:03:22;34.65;;;13.18;;
4353;SDS011;11018;51.258;6.806;2023-06-01T12:05:51;32.22;;;14.43;;
4353;SDS011;11018;51.258;6.806;2023-06-01T12:08:18;25.10;;;13.90;;
4353;SDS011;11018;51.258;6.806;2023-06-01T12:10:45;25.92;;;12.10;;
4353;SDS011;11018;51.258;6.806;2023-06-01T12:13:12;25.88;;;12.68;;
4353;SDS011;11018;51.258;6.806;2023-06-01T12:15:42;21.48;;;10.35;;
4353;SDS011;11018;51.258;6.806;2023-06-01T12:18:08;25.50;;;12.35;;
4353;SDS011;11018;51.258;6.806;2023-06-01T12:20:34;25.45;;;12.35;;
4353;SDS011;11018;51.258;6.806;2023-06-01T12:23:02;26.67;;;13.02;;
4353;SDS011;11018;51.258;6.806;2023-06-01T12:28:17;22.85;;;11.30;;
4353;SDS011;11018;51.258;6.806;2023-06-01T12:30:43;20.17;;;11.65;;
4353;SDS011;11018;51.258;6.806;2023-06-01T12:33:09;21.33;;;11.30;;
4353;SDS011;11018;51.258;6.806;2023-06-01T12:36:01;25.85;;;11.68;;
4353;SDS011;11018;51.258;6.806;2023-06-01T12:38:28;22.60;;;11.85;;
4353;SDS011;11018;51.258;6.806;2023-06-01T12:41:07;27.63;;;11.02;;
4353;SDS011;11018;51.258;6.806;2023-06-01T12:43:37;25.10;;;11.35;;
4353;SDS011;11018;51.258;6.806;2023-06-01T12:46:04;24.77;;;12.30;;
4353;SDS011;11018;51.258;6.806;2023-06-01T12:48:34;22.65;;;11.48;;
4353;SDS011;11018;51.258;6.806;2023-06-01T12:51:00;26.00;;;12.47;;
4353;SDS011;11018;51.258;6.806;2023-06-01T12:53:27;26.30;;;12.02;;
4353;SDS011;11018;51.258;6.806;2023-06-01T12:55:53;25.23;;;11.55;;
4353;SDS011;11018;51.258;6.806;2023-06-01T12:58:19;24.60;;;13.05;;
4353;SDS011;11018;51.258;6.806;2023-06-01T13:00:45;23.30;;;12.60;;
4353;SDS011;11018;51.258;6.806;2023-06-01T13:03:11;26.50;;;13.57;;
4353;SDS011;11018;51.258;6.806;2023-06-01T13:05:36;24.50;;;12.35;;
4353;SDS011;11018;51.258;6.806;2023-06-01T13:08:02;23.73;;;12.50;;
4353;SDS011;11018;51.258;6.806;2023-06-01T13:10:28;28.63;;;14.47;;
4353;SDS011;11018;51.258;6.806;2023-06-01T13:12:54;25.45;;;12.65;;
4353;SDS011;11018;51.258;6.806;2023-06-01T13:15:22;21.50;;;13.53;;
4353;SDS011;11018;51.258;6.806;2023-06-01T13:17:48;28.63;;;13.50;;
4353;SDS011;11018;51.258;6.806;2023-06-01T13:20:14;26.85;;;13.13;;
4353;SDS011;11018;51.258;6.806;2023-06-01T13:22:41;26.02;;;12.98;;
4353;SDS011;11018;51.258;6.806;2023-06-01T13:25:10;20.20;;;12.23;;
4353;SDS011;11018;51.258;6.806;2023-06-01T13:27:35;21.23;;;12.13;;
4353;SDS011;11018;51.258;6.806;2023-06-01T13:30:02;20.87;;;12.80;;
4353;SDS011;11018;51.258;6.806;2023-06-01T13:32:29;21.52;;;11.70;;
4353;SDS011;11018;51.258;6.806;2023-06-01T13:34:55;23.52;;;12.32;;
4353;SDS011;11018;51.258;6.806;2023-06-01T13:37:22;19.95;;;11.52;;
4353;SDS011;11018;51.258;6.806;2023-06-01T13:39:47;22.30;;;11.85;;
4353;SDS011;11018;51.258;6.806;2023-06-01T13:42:13;18.67;;;10.53;;
4353;SDS011;11018;51.258;6.806;2023-06-01T13:44:38;19.65;;;10.32;;
4353;SDS011;11018;51.258;6.806;2023-06-01T13:47:05;17.50;;;10.55;;
4353;SDS011;11018;51.258;6.806;2023-06-01T13:49:31;20.50;;;10.95;;
4353;SDS011;11018;51.258;6.806;2023-06-01T13:51:56;20.52;;;10.45;;
4353;SDS011;11018;51.258;6.806;2023-06-01T13:54:22;21.00;;;10.20;;
4353;SDS011;11018;51.258;6.806;2023-06-01T13:56:47;18.67;;;10.30;;
4353;SDS011;11018;51.258;6.806;2023-06-01T13:59:13;19.70;;;10.07;;
4353;SDS011;11018;51.258;6.806;2023-06-01T14:01:39;19.27;;;10.52;;
4353;SDS011;11018;51.258;6.806;2023-06-01T14:04:05;17.63;;;10.47;;
4353;SDS011;11018;51.258;6.806;2023-06-01T14:06:31;18.27;;;10.10;;
4353;SDS011;11018;51.258;6.806;2023-06-01T14:08:57;21.23;;;10.00;;
4353;SDS011;11018;51.258;6.806;2023-06-01T14:11:22;19.93;;;10.27;;
4353;SDS011;11018;51.258;6.806;2023-06-01T14:13:48;20.25;;;10.95;;
4353;SDS011;11018;51.258;6.806;2023-06-01T14:16:13;20.10;;;9.67;;
4353;SDS011;11018;51.258;6.806;2023-06-01T14:18:39;19.00;;;10.07;;
4353;SDS011;11018;51.258;6.806;2023-06-01T14:21:05;20.30;;;10.30;;
4353;SDS011;11018;51.258;6.806;2023-06-01T14:23:30;22.80;;;10.53;;
4353;SDS011;11018;51.258;6.806;2023-06-01T14:25:56;20.58;;;10.00;;
4353;SDS011;11018;51.258;6.806;2023-06-01T14:28:21;17.97;;;9.20;;
4353;SDS011;11018;51.258;6.806;2023-06-01T14:30:47;22.58;;;9.60;;
4353;SDS011;11018;51.258;6.806;2023-06-01T14:33:12;15.83;;;9.60;;
4353;SDS011;11018;51.258;6.806;2023-06-01T14:35:38;16.65;;;9.85;;
4353;SDS011;11018;51.258;6.806;2023-06-01T14:38:04;23.00;;;10.63;;
4353;SDS011;11018;51.258;6.806;2023-06-01T14:40:29;19.25;;;11.70;;
4353;SDS011;11018;51.258;6.806;2023-06-01T14:42:55;19.15;;;9.63;;
4353;SDS011;11018;51.258;6.806;2023-06-01T14:45:20;19.10;;;9.20;;
4353;SDS011;11018;51.258;6.806;2023-06-01T14:47:48;14.85;;;9.13;;
4353;SDS011;11018;51.258;6.806;2023-06-01T14:50:13;19.67;;;9.93;;
4353;SDS011;11018;51.258;6.806;2023-06-01T14:52:39;18.50;;;9.60;;
4353;SDS011;11018;51.258;6.806;2023-06-01T14:55:05;15.25;;;9.00;;
4353;SDS011;11018;51.258;6.806;2023-06-01T14:57:31;20.58;;;10.52;;
4353;SDS011;11018;51.258;6.806;2023-06-01T14:59:57;21.13;;;8.90;;
4353;SDS011;11018;51.258;6.806;2023-06-01T15:02:23;21.77;;;8.60;;
4353;SDS011;11018;51.258;6.806;2023-06-01T15:04:48;15.00;;;9.23;;
4353;SDS011;11018;51.258;6.806;2023-06-01T15:07:14;13.20;;;7.73;;
4353;SDS011;11018;51.258;6.806;2023-06-01T15:09:39;15.93;;;7.90;;
4353;SDS011;11018;51.258;6.806;2023-06-01T15:12:05;17.43;;;8.70;;
4353;SDS011;11018;51.258;6.806;2023-06-01T15:14:31;12.43;;;7.70;;
4353;SDS011;11018;51.258;6.806;2023-06-01T15:16:56;14.35;;;8.63;;
4353;SDS011;11018;51.258;6.806;2023-06-01T15:19:22;18.57;;;9.20;;
4353;SDS011;11018;51.258;6.806;2023-06-01T15:21:47;17.15;;;8.93;;
4353;SDS011;11018;51.258;6.806;2023-06-01T15:24:13;12.70;;;7.60;;
4353;SDS011;11018;51.258;6.806;2023-06-01T15:26:40;15.45;;;8.15;;